DLH5TN LGKR-EDDM
Flight info
| Callsign | DLH5TN |
|---|---|
| Flight time | N/A |
| Altitude | 34000 |
| Route | OLGAT DCT ABADI DCT CRAYE DCT GISAM DCT ORAKA DCT SPL DCT ALIVO DCT PENEP DCT RASTA DCT REDBU Q112 NAPSA NAPSA1B |
| Aircraft | A321/M-SDE3FGHIRWY/LB1 |
Departure
| Time | 2026-05-06 15:58 |
|---|---|
| Airport | Corfu Ioannis Kapodistrias International Airport (LGKR) |
Arrival
| Time | N/A |
|---|---|
| Airport | Munich Airport (EDDM) |
| Time | Latitude | Longitude | Altitude | Speed | Heading |
|---|---|---|---|---|---|
| 2026-05-06 15:44 | 39.60706 | 19.91343 | 9 ft | 0 kts | 79° |
| 2026-05-06 15:47 | 39.60705 | 19.91342 | 9 ft | 1 kts | 79° |
| 2026-05-06 15:47 | 39.60701 | 19.91311 | 9 ft | 4 kts | 79° |
| 2026-05-06 15:47 | 39.60695 | 19.91277 | 12 ft | 4 kts | 69° |
| 2026-05-06 15:48 | 39.60683 | 19.91247 | 11 ft | 4 kts | 51° |
| 2026-05-06 15:48 | 39.60664 | 19.91226 | 11 ft | 4 kts | 8° |
| 2026-05-06 15:48 | 39.60652 | 19.91226 | 9 ft | 1 kts | 350° |
| 2026-05-06 15:48 | 39.60651 | 19.91227 | 10 ft | 0 kts | 350° |
| 2026-05-06 15:51 | 39.60657 | 19.91225 | 11 ft | 3 kts | 350° |
| 2026-05-06 15:51 | 39.60689 | 19.91218 | 10 ft | 6 kts | 349° |
| 2026-05-06 15:51 | 39.60745 | 19.91205 | 10 ft | 11 kts | 352° |
| 2026-05-06 15:51 | 39.60822 | 19.91185 | 10 ft | 11 kts | 348° |
| 2026-05-06 15:52 | 39.60901 | 19.91165 | 9 ft | 12 kts | 348° |
| 2026-05-06 15:52 | 39.60995 | 19.91142 | 9 ft | 14 kts | 351° |
| 2026-05-06 15:52 | 39.61091 | 19.91114 | 10 ft | 15 kts | 347° |
| 2026-05-06 15:52 | 39.61173 | 19.91094 | 10 ft | 1 kts | 347° |
| 2026-05-06 15:53 | 39.61175 | 19.91093 | 10 ft | 0 kts | 347° |
| 2026-05-06 15:55 | 39.61177 | 19.91093 | 10 ft | 1 kts | 347° |
| 2026-05-06 15:56 | 39.61205 | 19.91070 | 10 ft | 7 kts | 310° |
| 2026-05-06 15:56 | 39.61225 | 19.91012 | 10 ft | 7 kts | 283° |
| 2026-05-06 15:56 | 39.61215 | 19.90957 | 10 ft | 6 kts | 200° |
| 2026-05-06 15:56 | 39.61188 | 19.90959 | 10 ft | 0 kts | 168° |
| 2026-05-06 15:57 | 39.61158 | 19.90966 | 10 ft | 24 kts | 168° |
| 2026-05-06 15:57 | 39.60733 | 19.91074 | 11 ft | 97 kts | 168° |
| 2026-05-06 15:58 | 39.60198 | 19.91213 | 11 ft | 138 kts | 168° |
| 2026-05-06 15:58 | 39.58783 | 19.91583 | 653 ft | 156 kts | 168° |
| 2026-05-06 15:58 | 39.58121 | 19.91950 | 1115 ft | 158 kts | 144° |
| 2026-05-06 15:58 | 39.57459 | 19.93130 | 1538 ft | 173 kts | 109° |
| 2026-05-06 15:59 | 39.57491 | 19.94780 | 1717 ft | 199 kts | 70° |
| 2026-05-06 15:59 | 39.58468 | 19.96137 | 1927 ft | 219 kts | 24° |
| 2026-05-06 15:59 | 39.59982 | 19.96249 | 2361 ft | 224 kts | 340° |
| 2026-05-06 15:59 | 39.61175 | 19.95008 | 2893 ft | 225 kts | 297° |
| 2026-05-06 16:00 | 39.61468 | 19.93051 | 3437 ft | 223 kts | 262° |
| 2026-05-06 16:00 | 39.61149 | 19.91111 | 4015 ft | 223 kts | 251° |
| 2026-05-06 16:00 | 39.60629 | 19.89161 | 4483 ft | 237 kts | 248° |
| 2026-05-06 16:00 | 39.60011 | 19.87066 | 4747 ft | 258 kts | 250° |
| 2026-05-06 16:01 | 39.59770 | 19.84731 | 5264 ft | 267 kts | 276° |
| 2026-05-06 16:01 | 39.60386 | 19.82455 | 5897 ft | 273 kts | 303° |
| 2026-05-06 16:01 | 39.61671 | 19.80628 | 6578 ft | 276 kts | 314° |
| 2026-05-06 16:01 | 39.63051 | 19.78885 | 7222 ft | 278 kts | 314° |
| 2026-05-06 16:02 | 39.64444 | 19.77136 | 7869 ft | 279 kts | 314° |
| 2026-05-06 16:02 | 39.65825 | 19.75398 | 8530 ft | 281 kts | 314° |
| 2026-05-06 16:02 | 39.67231 | 19.73621 | 9225 ft | 282 kts | 313° |
| 2026-05-06 16:02 | 39.68639 | 19.71839 | 9913 ft | 283 kts | 313° |
| 2026-05-06 16:03 | 39.70064 | 19.70033 | 10350 ft | 293 kts | 313° |
| 2026-05-06 16:03 | 39.71568 | 19.68117 | 10471 ft | 313 kts | 313° |
| 2026-05-06 16:03 | 39.73147 | 19.66096 | 10586 ft | 332 kts | 313° |
| 2026-05-06 16:03 | 39.74830 | 19.63943 | 10891 ft | 343 kts | 313° |
| 2026-05-06 16:04 | 39.76547 | 19.61753 | 11399 ft | 347 kts | 314° |
| 2026-05-06 16:04 | 39.78282 | 19.59546 | 11924 ft | 350 kts | 314° |
| 2026-05-06 16:04 | 39.80030 | 19.57321 | 12467 ft | 353 kts | 314° |
| 2026-05-06 16:04 | 39.81777 | 19.55095 | 12995 ft | 356 kts | 314° |
| 2026-05-06 16:05 | 39.83561 | 19.52820 | 13533 ft | 359 kts | 314° |
| 2026-05-06 16:05 | 39.85332 | 19.50555 | 14033 ft | 362 kts | 314° |
| 2026-05-06 16:05 | 39.87136 | 19.48239 | 14520 ft | 364 kts | 314° |
| 2026-05-06 16:05 | 39.88946 | 19.45916 | 15012 ft | 366 kts | 313° |
| 2026-05-06 16:06 | 39.90773 | 19.43573 | 15501 ft | 369 kts | 313° |
| 2026-05-06 16:06 | 39.92609 | 19.41219 | 15993 ft | 371 kts | 313° |
| 2026-05-06 16:06 | 39.94454 | 19.38849 | 16478 ft | 373 kts | 313° |
| 2026-05-06 16:06 | 39.96305 | 19.36466 | 16977 ft | 375 kts | 313° |
| 2026-05-06 16:07 | 39.98148 | 19.34092 | 17453 ft | 376 kts | 313° |
| 2026-05-06 16:07 | 40.00014 | 19.31686 | 17913 ft | 378 kts | 313° |
| 2026-05-06 16:07 | 40.01893 | 19.29264 | 18378 ft | 380 kts | 313° |
| 2026-05-06 16:07 | 40.03779 | 19.26833 | 18767 ft | 382 kts | 313° |
| 2026-05-06 16:08 | 40.05676 | 19.24387 | 19146 ft | 384 kts | 313° |
| 2026-05-06 16:08 | 40.07561 | 19.21955 | 19509 ft | 386 kts | 313° |
| 2026-05-06 16:08 | 40.09475 | 19.19478 | 19883 ft | 388 kts | 313° |
| 2026-05-06 16:08 | 40.11395 | 19.16989 | 20248 ft | 390 kts | 313° |
| 2026-05-06 16:09 | 40.13326 | 19.14488 | 20616 ft | 392 kts | 313° |
| 2026-05-06 16:09 | 40.15278 | 19.11958 | 20966 ft | 394 kts | 313° |
| 2026-05-06 16:09 | 40.17218 | 19.09444 | 21339 ft | 396 kts | 312° |
| 2026-05-06 16:09 | 40.19180 | 19.06901 | 21709 ft | 398 kts | 312° |
| 2026-05-06 16:10 | 40.21152 | 19.04339 | 22073 ft | 399 kts | 312° |
| 2026-05-06 16:10 | 40.23136 | 19.01767 | 22436 ft | 401 kts | 314° |
| 2026-05-06 16:10 | 40.25313 | 18.99503 | 22777 ft | 407 kts | 323° |
| 2026-05-06 16:10 | 40.27806 | 18.97660 | 23111 ft | 411 kts | 328° |
| 2026-05-06 16:11 | 40.30351 | 18.95898 | 23464 ft | 413 kts | 328° |
| 2026-05-06 16:11 | 40.32869 | 18.94156 | 23780 ft | 415 kts | 328° |
| 2026-05-06 16:11 | 40.35428 | 18.92379 | 24074 ft | 417 kts | 328° |
| 2026-05-06 16:11 | 40.37999 | 18.90584 | 24378 ft | 418 kts | 328° |
| 2026-05-06 16:12 | 40.40574 | 18.88780 | 24673 ft | 419 kts | 328° |
| 2026-05-06 16:12 | 40.43125 | 18.86991 | 24965 ft | 421 kts | 328° |
| 2026-05-06 16:12 | 40.45733 | 18.85160 | 25246 ft | 423 kts | 328° |
| 2026-05-06 16:12 | 40.48329 | 18.83339 | 25523 ft | 424 kts | 328° |
| 2026-05-06 16:13 | 40.50945 | 18.81508 | 25798 ft | 426 kts | 328° |
| 2026-05-06 16:13 | 40.53527 | 18.79699 | 26087 ft | 427 kts | 328° |
| 2026-05-06 16:13 | 40.56164 | 18.77848 | 26363 ft | 428 kts | 328° |
| 2026-05-06 16:13 | 40.58793 | 18.75995 | 26688 ft | 428 kts | 327° |
| 2026-05-06 16:14 | 40.61426 | 18.74134 | 27010 ft | 429 kts | 327° |
| 2026-05-06 16:14 | 40.64064 | 18.72268 | 27300 ft | 430 kts | 327° |
| 2026-05-06 16:14 | 40.66703 | 18.70406 | 27580 ft | 431 kts | 328° |
| 2026-05-06 16:14 | 40.69355 | 18.68536 | 27822 ft | 433 kts | 328° |
| 2026-05-06 16:15 | 40.72014 | 18.66657 | 28084 ft | 435 kts | 328° |
| 2026-05-06 16:15 | 40.74687 | 18.64761 | 28327 ft | 436 kts | 327° |
| 2026-05-06 16:15 | 40.77364 | 18.62872 | 28578 ft | 437 kts | 328° |
| 2026-05-06 16:15 | 40.80037 | 18.61034 | 28812 ft | 439 kts | 328° |
| 2026-05-06 16:16 | 40.82773 | 18.59190 | 29033 ft | 440 kts | 329° |
| 2026-05-06 16:16 | 40.85514 | 18.57360 | 29243 ft | 442 kts | 329° |
| 2026-05-06 16:16 | 40.88258 | 18.55524 | 29432 ft | 443 kts | 329° |
| 2026-05-06 16:16 | 40.91010 | 18.53669 | 29657 ft | 443 kts | 329° |
| 2026-05-06 16:17 | 40.93758 | 18.51807 | 29925 ft | 443 kts | 329° |
| 2026-05-06 16:17 | 40.96461 | 18.49965 | 30184 ft | 442 kts | 328° |
| 2026-05-06 16:17 | 40.99194 | 18.48095 | 30416 ft | 441 kts | 328° |
| 2026-05-06 16:17 | 41.01921 | 18.46230 | 30640 ft | 441 kts | 328° |
| 2026-05-06 16:18 | 41.04648 | 18.44364 | 30861 ft | 440 kts | 328° |
| 2026-05-06 16:18 | 41.07378 | 18.42496 | 31075 ft | 440 kts | 328° |
| 2026-05-06 16:18 | 41.10102 | 18.40630 | 31316 ft | 439 kts | 328° |
| 2026-05-06 16:18 | 41.12783 | 18.38795 | 31570 ft | 438 kts | 328° |
| 2026-05-06 16:19 | 41.15495 | 18.36938 | 31785 ft | 437 kts | 328° |
| 2026-05-06 16:19 | 41.18212 | 18.35080 | 32001 ft | 437 kts | 328° |
| 2026-05-06 16:19 | 41.20003 | 18.33853 | 32143 ft | 437 kts | 328° |